Time;durP1;ratioP1;P1;durP2;ratioP2;P2;SDS_P1;SDS_P2;PMS_P1;PMS_P2;Temp;Humidity;BMP_temperature;BMP_pressure;BME280_temperature;BME280_humidity;BME280_pressure;Samples;Min_cycle;Max_cycle;Signal;HPM_P1;HPM_P2
2024/02/07 00:03:48;;;;;;;3.1;1.5;;;;;;;9.77;62.8;97568.333333333;;;;
2024/02/07 00:13:48;;;;;;;3.1;1.5;;;;;;;9.79;62.78;97548.333333333;;;;
2024/02/07 00:24:48;;;;;;;3.1;1.5;;;;;;;9.9;62.02;97550;;;;
2024/02/07 00:35:48;;;;;;;4.3;1.9;;;;;;;10.02;62.13;97545;;;;
2024/02/07 00:45:48;;;;;;;4.3;1.9;;;;;;;10.04;61.96;97530;;;;
2024/02/07 00:56:48;;;;;;;2.6;1.5;;;;;;;9.98;62.02;97528.333333333;;;;
2024/02/07 01:07:50;;;;;;;2.6;1.5;;;;;;;9.98;62.47;97505;;;;
2024/02/07 01:18:50;;;;;;;2.6;1.5;;;;;;;9.97;62.38;97490;;;;
2024/02/07 01:29:49;;;;;;;3.8;1.8;;;;;;;9.93;62.9;97481.666666667;;;;
2024/02/07 01:39:48;;;;;;;3.8;1.8;;;;;;;9.89;62.61;97475;;;;
2024/02/07 01:50:48;;;;;;;3.8;1.8;;;;;;;9.88;62.74;97458.333333333;;;;
2024/02/07 02:01:49;;;;;;;5.2;2;;;;;;;9.83;63.19;97446.666666667;;;;
2024/02/07 02:11:48;;;;;;;5.2;2;;;;;;;9.76;63.1;97445;;;;
2024/02/07 02:22:48;;;;;;;5.2;2;;;;;;;9.77;62.74;97428.333333333;;;;
2024/02/07 02:33:49;;;;;;;4.8;1.7;;;;;;;9.67;63.44;97420;;;;
2024/02/07 02:43:49;;;;;;;4.8;1.7;;;;;;;9.6;63.99;97388.333333333;;;;
2024/02/07 02:54:49;;;;;;;4.8;1.7;;;;;;;9.51;63.92;97388.333333333;;;;
2024/02/07 03:04:50;;;;;;;3.2;1.5;;;;;;;9.59;63.5;97393.333333333;;;;
2024/02/07 03:15:49;;;;;;;3.2;1.5;;;;;;;9.54;63.42;97373.333333333;;;;
2024/02/07 03:26:48;;;;;;;4.3;1.5;;;;;;;9.45;63.61;97358.333333333;;;;
2024/02/07 03:36:49;;;;;;;4.3;1.5;;;;;;;9.42;63.72;97356.666666667;;;;
2024/02/07 03:46:49;;;;;;;4.3;1.5;;;;;;;9.43;63.71;97341.666666667;;;;
2024/02/07 03:56:48;;;;;;;3.6;1.7;;;;;;;9.55;62.74;97326.666666667;;;;
2024/02/07 04:06:51;;;;;;;3.6;1.7;;;;;;;9.54;62.81;97321.666666667;;;;
2024/02/07 05:20:48;;;;;;;3.4;1.7;;;;;;;9.46;64.13;97268.333333333;;;;
2024/02/07 05:31:48;;;;;;;3.9;1.6;;;;;;;9.44;64.12;97245;;;;
2024/02/07 05:41:49;;;;;;;3.9;1.6;;;;;;;9.46;64.32;97241.666666667;;;;
2024/02/07 05:51:57;;;;;;;3.9;1.6;;;;;;;9.42;63.82;97228.333333333;;;;
2024/02/07 06:01:49;;;;;;;4.1;1.9;;;;;;;9.41;63.8;97238.333333333;;;;
2024/02/07 06:12:49;;;;;;;4.1;1.9;;;;;;;9.56;62.97;97236.666666667;;;;
2024/02/07 06:22:49;;;;;;;4.1;1.9;;;;;;;9.54;63.13;97236.666666667;;;;
2024/02/07 06:32:50;;;;;;;3.4;1.6;;;;;;;9.57;63.62;97236.666666667;;;;
2024/02/07 06:42:49;;;;;;;3.4;1.6;;;;;;;9.59;63.33;97226.666666667;;;;
2024/02/07 06:53:49;;;;;;;3.4;1.6;;;;;;;9.59;63.8;97225;;;;
2024/02/07 07:04:49;;;;;;;5.9;1.7;;;;;;;9.43;64.44;97216.666666667;;;;
2024/02/07 07:15:49;;;;;;;5.9;1.7;;;;;;;9.33;64.78;97193.333333333;;;;
2024/02/07 07:25:49;;;;;;;5.1;2.2;;;;;;;9.28;64.96;97208.333333333;;;;
2024/02/07 07:35:49;;;;;;;5.1;2.2;;;;;;;9.27;64.94;97213.333333333;;;;
2024/02/07 07:46:49;;;;;;;5.1;2.2;;;;;;;9.37;64.7;97218.333333333;;;;
2024/02/07 07:57:49;;;;;;;3.7;1.6;;;;;;;9.38;64.38;97221.666666667;;;;
2024/02/07 08:08:49;;;;;;;3.7;1.6;;;;;;;9.33;65.16;97213.333333333;;;;
2024/02/07 08:19:49;;;;;;;3.7;1.6;;;;;;;9.33;64.86;97210;;;;
2024/02/07 08:30:49;;;;;;;4.6;2.4;;;;;;;9.47;64.59;97200;;;;
2024/02/07 08:41:49;;;;;;;4.6;2.4;;;;;;;9.62;64.98;97188.333333333;;;;
2024/02/07 08:51:49;;;;;;;4.6;2.4;;;;;;;9.82;63.9;97185;;;;
2024/02/07 09:01:49;;;;;;;7.5;2.8;;;;;;;9.79;64.9;97178.333333333;;;;
2024/02/07 09:12:49;;;;;;;7.5;2.8;;;;;;;9.54;67.51;97178.333333333;;;;
2024/02/07 09:22:49;;;;;;;7.5;2.8;;;;;;;9.57;67.41;97166.666666667;;;;
2024/02/07 09:33:49;;;;;;;4.9;1.9;;;;;;;9.61;67.26;97163.333333333;;;;
2024/02/07 09:44:49;;;;;;;4.9;1.9;;;;;;;9.34;70.35;97165;;;;
2024/02/07 09:55:49;;;;;;;4.1;2.1;;;;;;;8.91;74.43;97163.333333333;;;;
2024/02/07 10:05:49;;;;;;;4.1;2.1;;;;;;;8.56;77.47;97171.666666667;;;;
2024/02/07 10:15:49;;;;;;;4.1;2.1;;;;;;;8.27;80.57;97158.333333333;;;;
2024/02/07 10:26:49;;;;;;;4.7;2;;;;;;;8.37;79.59;97156.666666667;;;;
2024/02/07 10:37:52;;;;;;;4.7;2;;;;;;;8.51;78.29;97140;;;;
2024/02/07 10:47:51;;;;;;;4.7;2;;;;;;;8.41;78.09;97136.666666667;;;;
2024/02/07 10:57:49;;;;;;;4.9;2.3;;;;;;;8.75;77.11;97130;;;;
2024/02/07 11:07:49;;;;;;;4.9;2.3;;;;;;;8.7;75.76;97120;;;;
2024/02/07 11:18:49;;;;;;;4.9;2.3;;;;;;;8.58;77.95;97118.333333333;;;;
2024/02/07 11:29:49;;;;;;;4.8;2.2;;;;;;;8.53;79.07;97100;;;;
2024/02/07 11:39:49;;;;;;;4.8;2.2;;;;;;;8.98;77.79;97088.333333333;;;;
2024/02/07 11:49:50;;;;;;;4.8;2.2;;;;;;;9.05;75.81;97090;;;;
2024/02/07 12:00:49;;;;;;;6.1;2.4;;;;;;;9.24;75.34;97083.333333333;;;;
2024/02/07 12:11:49;;;;;;;6.1;2.4;;;;;;;9.15;74.69;97068.333333333;;;;
2024/02/07 12:21:49;;;;;;;6.1;2.4;;;;;;;9.26;74.31;97065;;;;
2024/02/07 12:31:49;;;;;;;5.2;2.5;;;;;;;9.44;73.63;97073.333333333;;;;
2024/02/07 12:41:49;;;;;;;5.2;2.5;;;;;;;9.71;70.57;97053.333333333;;;;
2024/02/07 12:52:49;;;;;;;5.2;2.5;;;;;;;10.37;66.72;97050;;;;
2024/02/07 13:02:49;;;;;;;4.5;2.1;;;;;;;10.58;66.17;97051.666666667;;;;
2024/02/07 13:13:49;;;;;;;4.5;2.1;;;;;;;10.72;65.3;97053.333333333;;;;
2024/02/07 13:24:49;;;;;;;3.7;1.9;;;;;;;10.75;65.26;97046.666666667;;;;
2024/02/07 13:35:49;;;;;;;3.7;1.9;;;;;;;10.89;64.73;97035;;;;
2024/02/07 13:45:49;;;;;;;3.7;1.9;;;;;;;10.94;64.51;97046.666666667;;;;
2024/02/07 13:56:49;;;;;;;4.4;1.8;;;;;;;10.86;64.64;97043.333333333;;;;
2024/02/07 14:06:49;;;;;;;4.4;1.8;;;;;;;10.85;64.95;97056.666666667;;;;
2024/02/07 14:17:49;;;;;;;4.4;1.8;;;;;;;10.82;64.54;97058.333333333;;;;
2024/02/07 14:28:49;;;;;;;4.6;2.2;;;;;;;10.84;64.91;97068.333333333;;;;
2024/02/07 14:38:49;;;;;;;4.6;2.2;;;;;;;10.83;65.12;97075;;;;
2024/02/07 14:48:49;;;;;;;4.6;2.2;;;;;;;10.81;64.89;97070;;;;
2024/02/07 14:59:49;;;;;;;5.3;2.7;;;;;;;9.79;71.87;97146.666666667;;;;
2024/02/07 15:09:49;;;;;;;5.3;2.7;;;;;;;8.26;77.2;97166.666666667;;;;
2024/02/07 15:20:49;;;;;;;5.3;2.7;;;;;;;7.52;77.9;97190;;;;
2024/02/07 15:30:49;;;;;;;6.2;2.3;;;;;;;6.91;80.46;97223.333333333;;;;
2024/02/07 15:40:49;;;;;;;6.2;2.3;;;;;;;6.59;79.7;97236.666666667;;;;
2024/02/07 15:50:49;;;;;;;6.2;2.3;;;;;;;6.2;80.08;97255;;;;
2024/02/07 16:01:49;;;;;;;3.2;1.7;;;;;;;5.98;80.35;97285;;;;
2024/02/07 16:11:49;;;;;;;3.2;1.7;;;;;;;5.88;80.96;97298.333333333;;;;
2024/02/07 16:22:49;;;;;;;3.2;1.7;;;;;;;5.71;82.34;97321.666666667;;;;
2024/02/07 16:33:49;;;;;;;4.9;2.5;;;;;;;5.34;83.77;97340;;;;
2024/02/07 16:43:51;;;;;;;4.9;2.5;;;;;;;5.2;84.49;97356.666666667;;;;
2024/02/07 16:54:49;;;;;;;6.3;3.7;;;;;;;4.95;85.26;97380;;;;
2024/02/07 17:04:49;;;;;;;6.3;3.7;;;;;;;4.56;85.11;97396.666666667;;;;
2024/02/07 17:15:50;;;;;;;6.3;3.7;;;;;;;4.45;85.3;97415;;;;
2024/02/07 17:25:49;;;;;;;4.3;2.1;;;;;;;4.37;86.1;97426.666666667;;;;
2024/02/07 17:35:51;;;;;;;4.3;2.1;;;;;;;4.23;86.07;97430;;;;
2024/02/07 17:46:49;;;;;;;4.3;2.1;;;;;;;4.21;85.98;97435;;;;
2024/02/07 17:56:49;;;;;;;4.1;2.4;;;;;;;4.13;86.02;97441.666666667;;;;
2024/02/07 18:07:52;;;;;;;4.1;2.4;;;;;;;3.88;86.39;97445;;;;
2024/02/07 18:17:49;;;;;;;4.1;2.4;;;;;;;3.57;86.26;97460;;;;
2024/02/07 19:53:00;;;;;;;4.9;3.5;;;;;;;2.33;89.98;;;;;
2024/02/07 20:02:55;;;;;;;4.9;3.5;;;;;;;2.29;89.67;;;;;
2024/02/07 20:13:57;;;;;;;7.7;3.7;;;;;;;2.45;89.16;;;;;
2024/02/07 20:24:55;;;;;;;7.7;3.7;;;;;;;2.54;88.67;;;;;
2024/02/07 20:35:55;;;;;;;7.7;3.7;;;;;;;2.37;88.75;;;;;
2024/02/07 20:45:55;;;;;;;6.4;2.8;;;;;;;2.48;88.74;;;;;
2024/02/07 20:56:55;;;;;;;6.4;2.8;;;;;;;2.53;88.5;;;;;
2024/02/07 21:07:55;;;;;;;7.3;3.5;;;;;;;2.48;88.49;;;;;
2024/02/07 21:18:55;;;;;;;7.3;3.5;;;;;;;2.5;88.16;;;;;
2024/02/07 21:28:55;;;;;;;7.3;3.5;;;;;;;2.44;88.45;;;;;
2024/02/07 21:38:55;;;;;;;6.5;3.2;;;;;;;2.58;88.12;;;;;
2024/02/07 21:48:55;;;;;;;6.5;3.2;;;;;;;2.31;88.25;;;;;
2024/02/07 21:59:55;;;;;;;6.5;3.2;;;;;;;2.36;88.52;;;;;
2024/02/07 22:09:55;;;;;;;7;3.7;;;;;;;2.5;88.55;;;;;
2024/02/07 22:19:56;;;;;;;7;3.7;;;;;;;2.46;88.62;;;;;
2024/02/07 22:30:55;;;;;;;7;3.7;;;;;;;2.45;88.74;;;;;
2024/02/07 22:40:55;;;;;;;8.6;4;;;;;;;2.22;88.2;;;;;
2024/02/07 22:51:55;;;;;;;8.6;4;;;;;;;2.13;88.37;;;;;
2024/02/07 23:01:55;;;;;;;8.6;4;;;;;;;2.14;88.24;;;;;
2024/02/07 23:11:55;;;;;;;8.3;4.2;;;;;;;2.07;88.84;;;;;
2024/02/07 23:22:55;;;;;;;8.3;4.2;;;;;;;2.11;88.48;;;;;
2024/02/07 23:32:55;;;;;;;8.3;4.2;;;;;;;2.04;88.88;;;;;
2024/02/07 23:43:55;;;;;;;10.4;5.6;;;;;;;2.15;88.7;;;;;
2024/02/07 23:54:55;;;;;;;10.4;5.6;;;;;;;2.18;88.71;;;;;
